Time;durP1;ratioP1;P1;durP2;ratioP2;P2;SDS_P1;SDS_P2;PMS_P1;PMS_P2;Temp;Humidity;BMP_temperature;BMP_pressure;BME280_temperature;BME280_humidity;BME280_pressure;Samples;Min_cycle;Max_cycle;Signal;HPM_P1;HPM_P2
2021/12/11 00:01:18;;;;;;;64.03;32.55;;;;;;;1.60;100.00;100460.66;6218830;23;20387;-61
2021/12/11 00:03:51;;;;;;;65.68;31.38;;;;;;;1.57;100.00;100464.88;6218735;23;20000;-61
2021/12/11 00:06:25;;;;;;;60.25;30.38;;;;;;;1.53;100.00;100476.88;6219092;23;20008;-61
2021/12/11 00:08:55;;;;;;;60.35;31.30;;;;;;;1.44;100.00;100468.09;6218192;23;20086;-61
2021/12/11 00:11:34;;;;;;;63.20;32.38;;;;;;;1.45;100.00;100482.72;6218830;23;20008;-61
2021/12/11 00:14:03;;;;;;;65.47;33.13;;;;;;;1.39;100.00;100483.47;6218698;23;20024;-61
2021/12/11 00:16:32;;;;;;;58.10;31.35;;;;;;;1.35;100.00;100492.03;6218213;23;20294;-61
2021/12/11 00:19:02;;;;;;;61.13;31.80;;;;;;;1.32;100.00;100497.13;6218342;23;20012;-61
2021/12/11 00:21:30;;;;;;;64.05;31.27;;;;;;;1.30;100.00;100493.63;6218509;23;20004;-61
2021/12/11 00:24:16;;;;;;;62.15;31.23;;;;;;;1.30;100.00;100503.94;6218618;23;20015;-61
2021/12/11 00:26:46;;;;;;;63.63;32.60;;;;;;;1.24;100.00;100509.84;6218233;23;20015;-61
2021/12/11 00:29:14;;;;;;;58.22;29.88;;;;;;;1.22;100.00;100503.78;6218106;23;20488;-61
2021/12/11 00:31:47;;;;;;;65.75;31.80;;;;;;;1.26;100.00;100522.75;6218290;23;20012;-62
2021/12/11 00:34:15;;;;;;;56.92;30.38;;;;;;;1.24;100.00;100530.47;6218104;23;20000;-61
2021/12/11 00:36:50;;;;;;;62.45;31.88;;;;;;;1.25;100.00;100527.03;6218254;23;20091;-61
2021/12/11 00:39:18;;;;;;;64.18;31.40;;;;;;;1.23;100.00;100535.59;6217704;23;20009;-61
2021/12/11 00:41:50;;;;;;;62.95;31.35;;;;;;;1.21;100.00;100539.88;6218606;23;20054;-61
2021/12/11 00:44:15;;;;;;;61.92;31.95;;;;;;;1.18;100.00;100535.53;6218301;23;20016;-63
2021/12/11 00:46:40;;;;;;;66.22;31.80;;;;;;;1.14;100.00;100544.03;6218604;23;20008;-61
2021/12/11 00:49:28;;;;;;;62.08;31.35;;;;;;;1.16;100.00;100554.38;6218675;23;20337;-61
2021/12/11 00:51:54;;;;;;;58.90;29.92;;;;;;;1.10;100.00;100556.81;6218325;23;20032;-61
2021/12/11 00:54:20;;;;;;;62.60;31.15;;;;;;;1.05;100.00;100564.44;6218205;23;20059;-61
2021/12/11 00:56:47;;;;;;;68.65;32.33;;;;;;;1.04;100.00;100566.13;6218067;23;20290;-61
2021/12/11 00:59:17;;;;;;;70.18;32.08;;;;;;;0.99;100.00;100569.47;6218160;23;20047;-61
2021/12/11 01:01:51;;;;;;;61.65;29.70;;;;;;;0.80;100.00;100545.03;6217855;23;20280;-61
2021/12/11 01:04:20;;;;;;;61.60;30.42;;;;;;;0.91;100.00;100581.31;6218391;23;20298;-61
2021/12/11 01:06:57;;;;;;;55.92;27.83;;;;;;;0.90;100.00;100583.03;6217857;23;20074;-71
2021/12/11 01:09:26;;;;;;;64.45;31.25;;;;;;;0.88;100.00;100587.28;6218015;23;20274;-62
2021/12/11 01:12:01;;;;;;;62.97;29.67;;;;;;;0.85;100.00;100592.38;6217935;23;20275;-62
2021/12/11 01:14:51;;;;;;;60.70;28.77;;;;;;;0.69;100.00;100573.13;6218036;23;20044;-62
2021/12/11 01:17:21;;;;;;;63.83;29.67;;;;;;;0.77;100.00;100591.34;6218259;23;20005;-62
2021/12/11 01:19:51;;;;;;;58.97;28.95;;;;;;;0.76;100.00;100599.91;6217929;23;20004;-62
2021/12/11 01:22:32;;;;;;;58.95;28.08;;;;;;;0.72;100.00;100604.94;6217543;23;20008;-62
2021/12/11 01:25:00;;;;;;;56.65;28.67;;;;;;;0.69;100.00;100610.91;6217988;23;20074;-62
2021/12/11 01:27:26;;;;;;;60.60;28.40;;;;;;;0.69;100.00;100613.50;6217966;23;20004;-62
2021/12/11 01:29:56;;;;;;;56.55;28.25;;;;;;;0.64;100.00;100613.38;6217956;23;20083;-62
2021/12/11 01:32:23;;;;;;;70.53;32.65;;;;;;;0.73;100.00;100615.28;6217641;23;20302;-62
2021/12/11 01:34:50;;;;;;;76.93;33.25;;;;;;;0.76;100.00;100625.66;6217885;23;20001;-62
2021/12/11 01:37:16;;;;;;;65.80;31.20;;;;;;;0.76;100.00;100635.06;6217787;23;20012;-62
2021/12/11 01:39:42;;;;;;;69.75;31.42;;;;;;;0.75;100.00;100636.78;6217811;23;20012;-62
2021/12/11 01:42:14;;;;;;;71.57;32.10;;;;;;;0.76;100.00;100658.25;6217844;23;20047;-62
2021/12/11 01:44:41;;;;;;;64.72;29.65;;;;;;;0.74;100.00;100659.91;6217998;23;20390;-62
2021/12/11 01:47:14;;;;;;;66.25;31.00;;;;;;;0.69;100.00;100652.94;6217655;23;20495;-63
2021/12/11 01:49:45;;;;;;;64.45;29.73;;;;;;;0.69;100.00;100665.81;6217380;23;20418;-63
2021/12/11 01:52:25;;;;;;;63.33;29.52;;;;;;;0.67;100.00;100670.09;6217650;23;20004;-61
2021/12/11 01:54:50;;;;;;;56.28;27.35;;;;;;;0.62;100.00;100681.97;6217701;23;20018;-62
2021/12/11 01:57:27;;;;;;;55.03;26.17;;;;;;;0.63;100.00;100693.16;6217517;23;20314;-62
2021/12/11 02:00:07;;;;;;;57.95;27.10;;;;;;;0.58;100.00;100699.88;6217716;23;20016;-61
2021/12/11 02:02:39;;;;;;;63.60;28.27;;;;;;;0.62;100.00;100714.59;6217554;23;20016;-62
2021/12/11 02:05:05;;;;;;;;;;;;;;;0.68;100.00;100723.34;6218674;23;20032;-62
2021/12/11 02:07:52;;;;;;;58.88;26.67;;;;;;;0.67;100.00;100723.31;6217714;23;19911;-62
2021/12/11 02:10:25;;;;;;;54.65;26.45;;;;;;;0.65;100.00;100718.09;6217416;23;20062;-62
2021/12/11 02:12:52;;;;;;;55.60;27.08;;;;;;;0.67;100.00;100716.44;6217142;23;20448;-61
2021/12/11 02:15:29;;;;;;;71.90;31.55;;;;;;;0.71;100.00;100717.38;6217773;23;20351;-62
2021/12/11 02:18:01;;;;;;;63.08;29.45;;;;;;;0.76;100.00;100725.22;6217751;23;20008;-62
2021/12/11 02:20:35;;;;;;;64.53;29.60;;;;;;;0.81;100.00;100729.66;6217854;23;20015;-61
2021/12/11 02:23:02;;;;;;;70.05;31.13;;;;;;;0.79;100.00;100726.16;6217782;23;20063;-62
2021/12/11 02:25:34;;;;;;;70.57;31.60;;;;;;;0.85;100.00;100736.63;6217387;23;20365;-62
2021/12/11 02:28:06;;;;;;;67.00;29.38;;;;;;;0.80;100.00;100730.47;6217572;23;20364;-62
2021/12/11 02:30:42;;;;;;;59.13;28.65;;;;;;;0.76;100.00;100727.78;6216454;23;20349;-62
2021/12/11 02:33:14;;;;;;;58.55;27.60;;;;;;;0.86;100.00;100753.81;6218692;23;20079;-62
2021/12/11 02:35:52;;;;;;;57.67;26.80;;;;;;;0.88;100.00;100762.44;6219607;23;20338;-62
2021/12/11 02:38:33;;;;;;;59.55;28.08;;;;;;;0.83;100.00;100758.91;6219489;23;20015;-62
2021/12/11 02:41:22;;;;;;;59.00;27.27;;;;;;;0.87;100.00;100765.84;6219950;23;20016;-63
2021/12/11 02:43:54;;;;;;;63.58;27.90;;;;;;;0.86;100.00;100768.41;6220183;23;20087;-62
2021/12/11 02:46:36;;;;;;;65.50;29.95;;;;;;;0.88;100.00;100775.31;6219520;23;20460;-62
2021/12/11 02:49:08;;;;;;;62.55;29.10;;;;;;;0.91;100.00;100780.53;6219480;23;20008;-62
2021/12/11 02:51:33;;;;;;;66.65;27.67;;;;;;;0.88;100.00;100772.72;6219257;23;20082;-62
2021/12/11 02:54:13;;;;;;;69.97;29.83;;;;;;;0.92;100.00;100786.56;6219731;23;20008;-62
2021/12/11 02:56:43;;;;;;;61.85;27.95;;;;;;;0.94;100.00;100790.06;6219617;23;20405;-62
2021/12/11 02:59:15;;;;;;;65.55;29.70;;;;;;;0.91;100.00;100793.41;6219677;23;20027;-62
2021/12/11 03:01:54;;;;;;;71.82;30.77;;;;;;;0.93;100.00;100789.19;6218832;23;20001;-62
2021/12/11 03:04:35;;;;;;;68.55;31.00;;;;;;;0.91;100.00;100798.56;6219301;23;20005;-63
2021/12/11 03:07:04;;;;;;;64.05;29.05;;;;;;;0.93;100.00;100809.78;6219728;23;20036;-62
2021/12/11 03:09:33;;;;;;;59.65;27.35;;;;;;;0.94;100.00;100810.66;6219302;23;20008;-62
2021/12/11 03:12:01;;;;;;;60.53;28.50;;;;;;;0.91;100.00;100801.16;6219161;23;20008;-62
2021/12/11 03:14:28;;;;;;;65.80;29.52;;;;;;;0.91;100.00;100814.03;6219007;23;20087;-63
2021/12/11 03:16:55;;;;;;;63.95;28.10;;;;;;;0.93;100.00;100817.53;6219500;23;20083;-62
2021/12/11 03:19:25;;;;;;;60.78;28.80;;;;;;;0.95;100.00;100825.28;6219587;23;20066;-62
2021/12/11 03:21:53;;;;;;;57.38;26.30;;;;;;;0.93;100.00;100822.66;6219223;23;20008;-62
2021/12/11 03:24:19;;;;;;;61.53;27.33;;;;;;;0.96;100.00;100824.47;6219390;23;20008;-63
2021/12/11 03:26:48;;;;;;;60.30;27.25;;;;;;;0.99;100.00;100829.69;6219064;23;20357;-62
2021/12/11 03:29:13;;;;;;;69.57;29.73;;;;;;;1.07;100.00;100845.31;6218479;23;20410;-62
2021/12/11 03:31:40;;;;;;;63.85;28.70;;;;;;;1.07;100.00;100846.19;6218923;23;20018;-62
2021/12/11 03:34:09;;;;;;;63.05;28.75;;;;;;;1.06;100.00;100831.56;6219087;23;20051;-63
2021/12/11 03:36:35;;;;;;;61.72;28.83;;;;;;;1.12;100.00;100843.75;6218308;23;20024;-62
2021/12/11 03:39:14;;;;;;;64.93;29.48;;;;;;;1.09;100.00;100841.94;6218859;23;20035;-63
2021/12/11 03:41:42;;;;;;;58.45;27.23;;;;;;;1.13;100.00;100848.06;6218794;23;20074;-64
2021/12/11 03:44:10;;;;;;;59.10;26.58;;;;;;;1.13;100.00;100846.34;6218938;23;20005;-63
2021/12/11 03:46:36;;;;;;;69.38;30.08;;;;;;;1.16;100.00;100846.44;6219197;23;20461;-63
2021/12/11 03:49:07;;;;;;;65.55;29.42;;;;;;;1.18;100.00;100843.91;6219278;23;20009;-62
2021/12/11 03:51:38;;;;;;;63.00;28.90;;;;;;;1.25;100.00;100849.22;6218517;23;20092;-62
2021/12/11 03:54:06;;;;;;;66.22;29.95;;;;;;;1.31;100.00;100851.09;6218889;23;20043;-63
2021/12/11 03:56:32;;;;;;;66.85;30.10;;;;;;;1.35;100.00;100858.06;6219077;23;20083;-62
2021/12/11 03:58:57;;;;;;;67.32;31.98;;;;;;;1.40;100.00;100851.28;6218898;23;20055;-62
2021/12/11 04:01:33;;;;;;;69.72;31.25;;;;;;;1.46;100.00;100856.59;6218887;23;20008;-62
2021/12/11 04:04:06;;;;;;;68.63;29.30;;;;;;;1.49;100.00;100867.00;6219732;23;20066;-62
2021/12/11 04:06:32;;;;;;;67.15;30.42;;;;;;;1.50;100.00;100863.59;6218041;23;20413;-63
2021/12/11 04:08:59;;;;;;;66.20;31.25;;;;;;;1.55;100.00;100861.13;6218745;23;20005;-62
2021/12/11 04:11:29;;;;;;;62.00;29.25;;;;;;;1.59;100.00;100862.91;6219046;23;20019;-62
2021/12/11 04:14:01;;;;;;;67.47;31.25;;;;;;;1.61;100.00;100866.41;6218902;23;20013;-62
2021/12/11 04:16:28;;;;;;;66.63;29.70;;;;;;;1.63;100.00;100868.19;6218953;23;20078;-63
2021/12/11 04:18:53;;;;;;;68.35;30.88;;;;;;;1.69;100.00;100882.94;6218353;23;20004;-62
2021/12/11 04:21:19;;;;;;;70.88;30.13;;;;;;;1.71;100.00;100876.97;6218523;23;20027;-62
2021/12/11 04:23:45;;;;;;;71.57;31.70;;;;;;;1.74;100.00;100883.88;6218914;23;20019;-62
2021/12/11 04:26:11;;;;;;;66.60;30.65;;;;;;;1.75;100.00;100883.94;6218556;23;20004;-62
2021/12/11 04:28:39;;;;;;;65.45;30.35;;;;;;;1.83;100.00;100890.97;6217995;23;20436;-62
2021/12/11 04:31:14;;;;;;;66.15;30.25;;;;;;;1.83;100.00;100897.00;6218062;23;20086;-62
2021/12/11 04:33:44;;;;;;;69.78;30.40;;;;;;;1.88;100.00;100892.84;6218333;23;20084;-62
2021/12/11 04:36:19;;;;;;;74.30;32.28;;;;;;;1.90;100.00;100900.63;6218995;23;20088;-62
2021/12/11 04:38:46;;;;;;;69.43;31.30;;;;;;;1.92;100.00;100906.66;6218197;23;20016;-62
2021/12/11 04:41:18;;;;;;;68.13;30.48;;;;;;;1.95;100.00;100899.00;6218710;23;20082;-62
2021/12/11 04:43:44;;;;;;;69.43;30.20;;;;;;;1.98;100.00;100902.50;6218477;23;20008;-63
2021/12/11 04:46:11;;;;;;;69.95;31.05;;;;;;;2.01;100.00;100909.47;6218364;23;20361;-63
2021/12/11 04:49:29;;;;;;;70.05;30.50;;;;;;;2.01;100.00;100918.06;6218844;23;20071;-63
2021/12/11 04:51:47;;;;;;;69.78;31.00;;;;;;;2.02;100.00;100927.56;6214683;23;20012;-62
2021/12/11 04:57:52;;;;;;;70.47;30.48;;;;;;;2.04;100.00;100932.75;6156155;23;20010;-62
2021/12/11 05:00:30;;;;;;;65.07;30.17;;;;;;;1.99;100.00;100924.91;6216106;23;20009;-62
2021/12/11 05:10:54;;;;;;;71.35;32.00;;;;;;;2.14;100.00;100942.44;6218159;23;20085;-62
2021/12/11 05:13:21;;;;;;;71.07;31.92;;;;;;;2.18;100.00;100954.56;6217945;23;20005;-62
2021/12/11 05:15:49;;;;;;;66.18;31.05;;;;;;;2.17;100.00;100947.66;6217762;23;20000;-62
2021/12/11 05:18:19;;;;;;;74.25;32.15;;;;;;;2.21;100.00;100956.34;6217990;23;20087;-62
2021/12/11 05:20:49;;;;;;;74.00;32.15;;;;;;;2.21;100.00;100953.78;6218535;23;20009;-62
2021/12/11 05:23:16;;;;;;;73.55;32.67;;;;;;;2.22;100.00;100961.56;6217690;23;20354;-62
2021/12/11 05:25:42;;;;;;;75.03;34.13;;;;;;;2.23;100.00;100971.06;6217934;23;20267;-62
2021/12/11 05:28:09;;;;;;;71.22;31.30;;;;;;;2.24;100.00;100975.38;6217491;23;20283;-62
2021/12/11 05:30:38;;;;;;;71.88;31.52;;;;;;;2.25;100.00;100971.94;6218072;23;20008;-62
2021/12/11 05:33:04;;;;;;;71.90;31.45;;;;;;;2.26;100.00;100976.25;6218163;23;20044;-62
2021/12/11 05:35:34;;;;;;;74.60;31.65;;;;;;;2.34;100.00;100977.31;6217833;23;20009;-62
2021/12/11 05:38:00;;;;;;;73.93;32.38;;;;;;;2.31;100.00;100961.75;6217640;23;20417;-62
2021/12/11 05:40:27;;;;;;;73.03;31.77;;;;;;;2.34;100.00;100979.03;6217210;23;20020;-62
2021/12/11 05:42:54;;;;;;;70.43;31.13;;;;;;;2.36;100.00;100980.81;6217841;23;20032;-62
2021/12/11 05:45:20;;;;;;;75.13;31.60;;;;;;;2.35;100.00;100988.50;6217931;23;20005;-62
2021/12/11 05:47:46;;;;;;;73.75;32.00;;;;;;;2.34;100.00;100989.34;6217883;23;20008;-62
2021/12/11 05:50:19;;;;;;;70.15;32.08;;;;;;;2.34;100.00;100992.81;6217891;23;20381;-62
2021/12/11 05:52:45;;;;;;;72.82;31.75;;;;;;;2.34;100.00;100997.09;6217326;23;20024;-62
2021/12/11 05:55:15;;;;;;;70.40;31.55;;;;;;;2.35;100.00;101002.31;6217239;23;20397;-62
2021/12/11 05:57:49;;;;;;;68.32;31.02;;;;;;;2.36;100.00;100998.00;6217773;23;20005;-62
2021/12/11 06:00:20;;;;;;;70.57;31.63;;;;;;;2.38;100.00;101007.53;6217971;23;20015;-62
2021/12/11 06:02:45;;;;;;;63.47;30.50;;;;;;;2.40;100.00;100995.53;6217995;23;20028;-62
2021/12/11 06:05:11;;;;;;;66.18;31.63;;;;;;;2.40;100.00;101002.41;6217410;23;20421;-62
2021/12/11 06:07:37;;;;;;;70.00;31.27;;;;;;;2.36;100.00;101001.47;6216856;23;20004;-63
2021/12/11 06:10:11;;;;;;;67.97;30.58;;;;;;;2.37;100.00;101012.66;6217628;23;20475;-62
2021/12/11 06:12:37;;;;;;;70.35;31.67;;;;;;;2.34;100.00;101007.44;6217209;23;20073;-62
2021/12/11 06:15:04;;;;;;;70.20;31.02;;;;;;;2.33;100.00;101005.69;6217877;23;20079;-62
2021/12/11 06:17:32;;;;;;;66.13;30.83;;;;;;;2.36;100.00;101016.09;6217531;23;20004;-62
2021/12/11 06:19:58;;;;;;;68.97;31.83;;;;;;;2.32;100.00;101015.13;6217764;23;20047;-62
2021/12/11 06:22:29;;;;;;;64.85;31.42;;;;;;;2.30;100.00;101029.72;6217484;23;20001;-62
2021/12/11 06:24:57;;;;;;;69.28;31.63;;;;;;;2.13;100.00;101007.81;6217642;23;20004;-62
2021/12/11 06:27:24;;;;;;;71.22;33.30;;;;;;;2.29;100.00;101032.25;6217509;23;20278;-62
2021/12/11 06:29:50;;;;;;;70.70;32.17;;;;;;;2.29;100.00;101038.28;6217746;23;20004;-62
2021/12/11 06:32:15;;;;;;;71.85;34.53;;;;;;;2.31;100.00;101041.78;6217157;23;20009;-62
2021/12/11 06:34:41;;;;;;;74.80;33.50;;;;;;;2.32;100.00;101043.53;6217042;23;20371;-62
2021/12/11 06:37:08;;;;;;;74.10;33.03;;;;;;;2.40;100.00;101041.16;6217412;23;20005;-62
2021/12/11 06:39:33;;;;;;;79.63;33.70;;;;;;;2.41;100.00;101048.06;6217359;23;20040;-62
2021/12/11 06:42:02;;;;;;;77.90;35.75;;;;;;;2.48;100.00;101060.25;6217537;23;20001;-62
2021/12/11 06:44:29;;;;;;;83.45;36.97;;;;;;;2.48;100.00;101057.66;6218729;23;20020;-62
2021/12/11 06:46:57;;;;;;;79.95;37.17;;;;;;;2.53;100.00;101065.53;6217494;23;20417;-62
2021/12/11 06:49:23;;;;;;;87.72;37.38;;;;;;;2.55;100.00;101069.91;6217347;23;20009;-62
2021/12/11 06:51:49;;;;;;;90.72;39.22;;;;;;;2.57;100.00;101075.97;6217471;23;20009;-62
2021/12/11 06:54:15;;;;;;;99.55;39.97;;;;;;;2.63;100.00;101076.09;6217774;23;20083;-61
2021/12/11 06:56:41;;;;;;;97.78;41.88;;;;;;;2.59;100.00;101073.44;6216827;23;20106;-62
2021/12/11 06:59:07;;;;;;;95.28;40.72;;;;;;;2.66;100.00;101088.22;6217373;23;20035;-62
2021/12/11 07:01:33;;;;;;;97.00;40.63;;;;;;;2.64;100.00;101084.72;6217193;23;20001;-62
2021/12/11 07:03:59;;;;;;;90.43;39.95;;;;;;;2.70;100.00;101090.03;6217071;23;20005;-62
2021/12/11 07:06:28;;;;;;;93.07;41.72;;;;;;;2.72;100.00;101086.66;6217212;23;20005;-62
2021/12/11 07:08:54;;;;;;;99.80;42.22;;;;;;;2.74;100.00;101097.03;6217421;23;20074;-61
2021/12/11 07:11:21;;;;;;;95.53;42.75;;;;;;;2.78;100.00;101101.41;6217321;23;20087;-62
2021/12/11 07:13:47;;;;;;;98.50;42.17;;;;;;;2.82;100.00;101092.88;6217094;23;20074;-62
2021/12/11 07:16:12;;;;;;;100.93;43.67;;;;;;;2.82;100.00;101092.88;6217009;23;20087;-62
2021/12/11 07:18:39;;;;;;;97.18;42.53;;;;;;;2.85;100.00;101110.16;6217809;23;20009;-62
2021/12/11 07:21:05;;;;;;;92.70;42.20;;;;;;;2.81;100.00;101101.47;6219244;23;20009;-62
2021/12/11 07:23:32;;;;;;;90.93;41.38;;;;;;;2.89;100.00;101097.34;6218902;23;20271;-62
2021/12/11 07:26:12;;;;;;;90.65;41.88;;;;;;;2.83;100.00;101112.72;6219145;23;20015;-62
2021/12/11 07:28:40;;;;;;;99.68;43.67;;;;;;;2.89;100.00;101109.41;6219096;23;20059;-62
2021/12/11 07:31:05;;;;;;;100.93;44.65;;;;;;;2.84;100.00;101124.78;6218672;23;20010;-59
2021/12/11 07:33:31;;;;;;;98.97;43.83;;;;;;;2.84;100.00;101129.09;6218840;23;20004;-67
2021/12/11 07:35:56;;;;;;;92.70;41.00;;;;;;;2.86;100.00;101125.72;6218919;23;20009;-63
2021/12/11 07:38:22;;;;;;;93.82;42.20;;;;;;;2.93;100.00;101144.81;6218653;23;20005;-62
2021/12/11 07:40:54;;;;;;;86.45;40.78;;;;;;;2.94;100.00;101142.28;6218787;23;20341;-62
2021/12/11 07:43:23;;;;;;;92.95;38.90;;;;;;;2.90;100.00;101119.78;6218832;23;20089;-62
2021/12/11 07:45:50;;;;;;;81.28;37.92;;;;;;;3.05;100.00;101145.97;6218505;23;20031;-62
2021/12/11 07:48:15;;;;;;;80.50;36.83;;;;;;;3.08;100.00;101155.50;6218837;23;20000;-62
2021/12/11 07:50:41;;;;;;;72.50;33.67;;;;;;;3.10;100.00;101149.53;6218736;23;20259;-62
2021/12/11 07:53:07;;;;;;;75.95;34.20;;;;;;;3.11;100.00;101155.56;6218296;23;20008;-62
2021/12/11 07:55:33;;;;;;;68.70;33.20;;;;;;;3.13;100.00;101154.72;6218759;23;20092;-61
2021/12/11 07:58:00;;;;;;;71.47;33.03;;;;;;;3.16;100.00;101164.28;6218752;23;20026;-62
2021/12/11 08:00:26;;;;;;;68.75;32.33;;;;;;;3.19;100.00;101177.28;6218344;23;20004;-62
2021/12/11 08:02:52;;;;;;;70.53;30.48;;;;;;;3.20;100.00;101176.44;6219291;23;20005;-62
2021/12/11 08:05:18;;;;;;;67.88;29.88;;;;;;;3.24;100.00;101172.22;6218532;23;20005;-62
2021/12/11 08:07:44;;;;;;;62.65;28.42;;;;;;;3.28;100.00;101179.22;6218951;23;20008;-62
2021/12/11 08:10:13;;;;;;;58.30;27.25;;;;;;;3.30;100.00;101178.38;6218388;23;20009;-62
2021/12/11 08:12:40;;;;;;;57.50;24.85;;;;;;;3.25;100.00;101169.66;6218145;23;20076;-63
2021/12/11 08:15:07;;;;;;;49.15;22.70;;;;;;;3.33;100.00;101193.09;6218679;23;20000;-61
2021/12/11 08:17:32;;;;;;;51.15;22.33;;;;;;;3.28;100.00;101186.97;6218235;23;20016;-62
2021/12/11 08:19:57;;;;;;;44.58;20.67;;;;;;;3.28;100.00;101194.72;6218416;23;20020;-61
2021/12/11 08:22:23;;;;;;;41.38;18.17;;;;;;;3.31;100.00;101198.22;6218415;23;20005;-62
2021/12/11 08:24:49;;;;;;;57.85;19.98;;;;;;;3.30;100.00;101203.34;6218635;23;20018;-62
2021/12/11 08:27:19;;;;;;;46.70;19.38;;;;;;;3.30;100.00;101208.53;6218590;23;20035;-63
2021/12/11 08:29:47;;;;;;;50.13;17.60;;;;;;;3.43;100.00;101211.44;6217797;23;20582;-62
2021/12/11 08:32:14;;;;;;;44.72;16.77;;;;;;;3.45;100.00;101219.25;6218643;23;20011;-62
2021/12/11 08:34:40;;;;;;;47.85;17.20;;;;;;;3.40;100.00;101232.06;6218484;23;20414;-62
2021/12/11 08:37:09;;;;;;;49.25;17.23;;;;;;;3.41;100.00;101225.19;6218420;23;20036;-62
2021/12/11 08:39:35;;;;;;;39.55;15.50;;;;;;;3.41;100.00;101235.53;6218275;23;20027;-62
2021/12/11 08:42:03;;;;;;;34.78;14.25;;;;;;;3.47;100.00;101230.47;6218139;23;20013;-62
2021/12/11 08:44:34;;;;;;;49.40;14.43;;;;;;;3.47;100.00;101246.84;6218200;23;20016;-62
2021/12/11 08:47:02;;;;;;;38.40;13.47;;;;;;;3.53;100.00;101250.44;6218199;23;20004;-62
2021/12/11 08:49:31;;;;;;;41.15;12.00;;;;;;;3.53;100.00;101233.19;6218077;23;20047;-61
2021/12/11 08:52:06;;;;;;;36.42;11.60;;;;;;;3.65;100.00;101264.50;6218429;23;20004;-62
2021/12/11 08:54:34;;;;;;;39.72;10.93;;;;;;;3.70;100.00;101262.88;6217864;23;20413;-62
2021/12/11 08:57:04;;;;;;;40.28;10.40;;;;;;;3.75;100.00;101260.41;6218369;23;20005;-62
2021/12/11 08:59:31;;;;;;;29.02;9.52;;;;;;;3.74;100.00;101263.84;6218260;23;20008;-62
2021/12/11 09:02:13;;;;;;;33.55;9.10;;;;;;;3.80;100.00;101258.78;6218289;23;20035;-62
2021/12/11 09:04:55;;;;;;;26.02;8.77;;;;;;;3.78;100.00;101263.06;6218050;23;20016;-62
2021/12/11 09:07:30;;;;;;;28.98;8.43;;;;;;;3.91;100.00;101282.31;6217691;23;20402;-62
2021/12/11 09:10:01;;;;;;;40.58;8.60;;;;;;;3.99;100.00;101285.91;6218313;23;20120;-62
2021/12/11 09:12:45;;;;;;;26.37;8.27;;;;;;;4.04;100.00;101297.25;6218134;23;20011;-62
2021/12/11 09:15:26;;;;;;;32.72;8.32;;;;;;;4.02;100.00;101280.78;6218034;23;20039;-62
2021/12/11 09:18:00;;;;;;;28.42;7.30;;;;;;;4.24;100.00;101315.78;6217609;23;20019;-63
2021/12/11 09:20:34;;;;;;;28.23;7.63;;;;;;;4.33;100.00;101319.41;6217770;23;20005;-63
2021/12/11 09:23:13;;;;;;;25.27;6.88;;;;;;;4.40;100.00;101323.88;6218122;23;20014;-63
2021/12/11 09:25:55;;;;;;;20.92;7.07;;;;;;;4.49;100.00;101326.66;6217900;23;20036;-64
2021/12/11 09:28:41;;;;;;;29.25;7.28;;;;;;;4.61;100.00;101331.19;6217724;23;20012;-64
2021/12/11 09:31:35;;;;;;;31.88;7.13;;;;;;;4.75;100.00;101334.88;6217957;23;20004;-63
2021/12/11 09:34:22;;;;;;;29.33;7.00;;;;;;;4.89;100.00;101338.59;6214268;23;20043;-63
2021/12/11 09:36:54;;;;;;;29.83;6.53;;;;;;;5.02;100.00;101344.88;6216984;23;20103;-64
2021/12/11 09:39:22;;;;;;;31.90;6.72;;;;;;;5.21;100.00;101356.44;6217435;23;20016;-63
2021/12/11 09:41:47;;;;;;;28.73;6.07;;;;;;;5.40;100.00;101357.59;6217139;23;20009;-63
2021/12/11 09:44:20;;;;;;;22.67;5.33;;;;;;;5.58;100.00;101363.94;6217569;23;20393;-63
2021/12/11 09:46:53;;;;;;;30.63;5.82;;;;;;;5.73;100.00;101373.69;6216792;23;20302;-64
2021/12/11 09:49:27;;;;;;;25.10;5.82;;;;;;;5.86;100.00;101379.94;6217799;23;20008;-63
2021/12/11 09:52:04;;;;;;;19.20;5.85;;;;;;;5.90;100.00;101382.63;6217385;23;20401;-63
2021/12/11 09:54:34;;;;;;;35.88;5.75;;;;;;;5.88;100.00;101384.34;6218053;23;20027;-63
2021/12/11 09:57:08;;;;;;;26.20;4.40;;;;;;;5.85;100.00;101392.06;6217784;23;20020;-64
2021/12/11 09:59:35;;;;;;;22.73;4.55;;;;;;;5.79;100.00;101394.56;6217433;23;20432;-63
2021/12/11 10:02:10;;;;;;;18.65;4.85;;;;;;;5.77;100.00;101390.19;6218124;23;20000;-63
2021/12/11 10:04:46;;;;;;;25.95;5.50;;;;;;;5.74;100.00;101398.81;6218033;23;20009;-63
2021/12/11 10:07:29;;;;;;;19.05;5.30;;;;;;;5.73;100.00;101401.38;6217627;23;20009;-63
2021/12/11 10:10:10;;;;;;;20.48;5.45;;;;;;;5.69;100.00;101403.06;6216896;23;20445;-63
2021/12/11 10:12:41;;;;;;;16.08;5.28;;;;;;;5.72;100.00;101405.69;6217535;23;20005;-63
2021/12/11 10:15:21;;;;;;;24.85;5.32;;;;;;;5.71;100.00;101416.97;6217499;23;20015;-63
2021/12/11 10:17:52;;;;;;;23.95;5.93;;;;;;;5.69;100.00;101421.25;6217529;23;20035;-63
2021/12/11 10:20:27;;;;;;;19.05;5.40;;;;;;;5.69;100.00;101415.19;6217450;23;20027;-63
2021/12/11 10:22:58;;;;;;;21.52;5.97;;;;;;;5.71;100.00;101422.16;6217052;23;20425;-63
2021/12/11 10:25:30;;;;;;;26.80;5.72;;;;;;;5.75;100.00;101420.44;6217015;23;20407;-63
2021/12/11 10:27:56;;;;;;;;;;;;;;;5.89;100.00;101437.16;6217923;23;20088;-63
2021/12/11 10:30:24;;;;;;;19.48;5.55;;;;;;;5.94;100.00;101428.59;6217392;23;19908;-64
2021/12/11 10:32:50;;;;;;;23.25;5.82;;;;;;;6.04;100.00;101432.19;6217561;23;20020;-63
2021/12/11 10:35:19;;;;;;;21.58;6.13;;;;;;;6.06;100.00;101433.06;6217184;23;20298;-63
2021/12/11 10:37:46;;;;;;;28.15;7.20;;;;;;;6.06;100.00;101440.88;6217120;23;20012;-63
2021/12/11 10:40:27;;;;;;;19.58;5.97;;;;;;;6.02;100.00;101430.44;6217684;23;20294;-63
2021/12/11 10:43:00;;;;;;;26.58;6.18;;;;;;;6.04;100.00;101442.59;6217331;23;20302;-63
2021/12/11 10:45:27;;;;;;;18.58;5.97;;;;;;;6.02;100.00;101443.41;6217319;23;20083;-63
2021/12/11 10:47:56;;;;;;;22.30;6.07;;;;;;;6.09;100.00;101445.25;6217584;23;20008;-62
2021/12/11 10:50:27;;;;;;;19.40;6.57;;;;;;;6.11;100.00;101448.72;6217431;23;20063;-63
2021/12/11 10:52:53;;;;;;;18.35;6.32;;;;;;;6.09;100.00;101460.81;6217498;23;20005;-63
2021/12/11 10:55:23;;;;;;;18.08;5.75;;;;;;;6.18;100.00;101466.19;6218895;23;20005;-63
2021/12/11 10:57:53;;;;;;;18.50;6.40;;;;;;;6.41;100.00;101463.88;6219137;23;20026;-63
2021/12/11 11:00:25;;;;;;;23.00;6.70;;;;;;;6.54;100.00;101463.22;6219492;23;20027;-63
2021/12/11 11:02:51;;;;;;;16.10;5.65;;;;;;;6.53;100.00;101466.66;6218844;23;20009;-63
2021/12/11 11:05:20;;;;;;;22.90;6.28;;;;;;;6.47;100.00;101470.03;6219082;23;20009;-63
2021/12/11 11:07:47;;;;;;;21.58;6.32;;;;;;;6.47;100.00;101479.56;6218927;23;20267;-62
2021/12/11 11:10:20;;;;;;;15.30;5.35;;;;;;;6.44;100.00;101487.31;6218534;23;20004;-63
2021/12/11 11:12:47;;;;;;;15.88;5.40;;;;;;;6.47;100.00;101496.03;6218486;23;20051;-63
2021/12/11 11:15:13;;;;;;;20.02;5.97;;;;;;;6.48;100.00;101497.78;6218898;23;20012;-62
2021/12/11 11:17:39;;;;;;;14.38;4.85;;;;;;;6.48;100.00;101509.91;6219545;23;20079;-62
2021/12/11 11:20:09;;;;;;;13.00;4.50;;;;;;;6.44;100.00;101505.50;6219384;23;20039;-63
2021/12/11 11:22:37;;;;;;;16.80;4.75;;;;;;;6.45;100.00;101510.75;6219187;23;20016;-63
2021/12/11 11:25:25;;;;;;;18.13;4.95;;;;;;;6.49;100.00;101504.72;6219102;23;20062;-63
2021/12/11 11:27:57;;;;;;;15.60;4.88;;;;;;;6.52;100.00;101520.38;6219156;23;20040;-62
2021/12/11 11:30:29;;;;;;;18.02;4.70;;;;;;;6.52;100.00;101520.38;6219295;23;20015;-63
2021/12/11 11:32:56;;;;;;;19.35;5.45;;;;;;;6.54;100.00;101523.88;6218942;23;20015;-62
2021/12/11 11:35:25;;;;;;;16.45;4.65;;;;;;;6.57;100.00;101515.25;6218973;23;20008;-63
2021/12/11 11:37:54;;;;;;;18.70;4.43;;;;;;;6.58;100.00;101522.22;6219236;23;20004;-63